Time;durP1;ratioP1;P1;durP2;ratioP2;P2;SDS_P1;SDS_P2;PMS_P1;PMS_P2;Temp;Humidity;BMP_temperature;BMP_pressure;BME280_temperature;BME280_humidity;BME280_pressure;Samples;Min_cycle;Max_cycle;Signal;HPM_P1;HPM_P2
2023/01/11 00:00:23;;;;;;;1.00;0.90;;;;;;;;;;5055057;28;20618;-74
2023/01/11 00:02:55;;;;;;;1.35;1.08;;;;;;;;;;5073001;28;20052;-75
2023/01/11 00:05:22;;;;;;;1.85;1.10;;;;;;;;;;5055386;28;20139;-75
2023/01/11 00:07:49;;;;;;;1.17;1.00;;;;;;;;;;5066743;28;20404;-75
2023/01/11 00:18:01;;;;;;;1.50;1.10;;;;;;;;;;5052092;28;20090;-75
2023/01/11 00:20:28;;;;;;;1.30;1.00;;;;;;;;;;5051544;28;20053;-75
2023/01/11 00:22:55;;;;;;;2.25;1.00;;;;;;;;;;5051309;28;20061;-75
2023/01/11 00:25:22;;;;;;;1.67;1.00;;;;;;;;;;5050254;28;20057;-75
2023/01/11 00:27:50;;;;;;;1.33;1.02;;;;;;;;;;5051442;28;20064;-74
2023/01/11 00:30:17;;;;;;;1.20;1.00;;;;;;;;;;5161602;22;20060;-75
2023/01/11 00:32:44;;;;;;;1.38;0.90;;;;;;;;;;5088232;28;20048;-74
2023/01/11 00:35:12;;;;;;;1.00;0.85;;;;;;;;;;5071428;28;20052;-75
2023/01/11 00:37:39;;;;;;;1.33;0.93;;;;;;;;;;5082276;28;20060;-75
2023/01/11 00:40:07;;;;;;;1.30;1.00;;;;;;;;;;5091495;28;20048;-74
2023/01/11 00:48:04;;;;;;;1.15;1.05;;;;;;;;;;5089981;28;20138;-74
2023/01/11 00:50:34;;;;;;;1.00;0.90;;;13.40;77.80;;;;;;5091493;28;20064;-74
2023/01/11 00:53:01;;;;;;;1.30;1.00;;;;;;;;;;5090597;28;20059;-75
2023/01/11 00:55:30;;;;;;;1.25;0.90;;;;;;;;;;5091068;28;20127;-75
2023/01/11 00:57:57;;;;;;;1.25;0.90;;;;;;;;;;5089586;28;20056;-75
2023/01/11 01:00:24;;;;;;;1.13;0.88;;;;;;;;;;5091299;28;20056;-75
2023/01/11 01:02:51;;;;;;;1.00;0.90;;;;;;;;;;5090994;28;20139;-74
2023/01/11 01:05:19;;;;;;;1.10;0.90;;;;;;;;;;5091130;28;20055;-75
2023/01/11 01:07:47;;;;;;;0.98;0.88;;;;;;;;;;5079588;28;20048;-74
2023/01/11 01:10:16;;;;;;;1.27;1.02;;;13.50;77.60;;;;;;5071813;28;20046;-75
2023/01/11 01:15:27;;;;;;;1.80;0.88;;;;;;;;;;5062855;28;20544;-75
2023/01/11 01:17:54;;;;;;;0.75;0.75;;;;;;;;;;5080431;28;20408;-75
2023/01/11 01:20:21;;;;;;;1.05;0.82;;;;;;;;;;5070444;28;20052;-74
2023/01/11 01:22:50;;;;;;;0.82;0.82;;;;;;;;;;5070365;28;20048;-74
2023/01/11 01:25:17;;;;;;;0.90;0.90;;;;;;;;;;5070858;28;20136;-75
2023/01/11 01:27:44;;;;;;;1.75;1.02;;;;;;;;;;5081416;28;20056;-75
2023/01/11 01:30:11;;;;;;;1.13;0.90;;;;;;;;;;5090593;28;20060;-75
2023/01/11 01:32:38;;;;;;;1.23;0.90;;;;;;;;;;5088268;28;20139;-75
2023/01/11 01:35:06;;;;;;;1.80;0.80;;;;;;;;;;5070748;28;20746;-75
2023/01/11 01:37:33;;;;;;;0.88;0.88;;;;;;;;;;5072918;28;20052;-75
2023/01/11 01:40:01;;;;;;;0.80;0.80;;;;;;;;;;5075606;28;20382;-75
2023/01/11 01:42:28;;;;;;;1.00;0.90;;;;;;;;;;5075484;28;20058;-74
2023/01/11 01:44:56;;;;;;;0.80;0.80;;;;;;;;;;5074366;28;20131;-75
2023/01/11 01:47:25;;;;;;;0.82;0.82;;;;;;;;;;5081894;28;20048;-75
2023/01/11 01:49:52;;;;;;;1.10;0.90;;;;;;;;;;5094598;28;20054;-75
2023/01/11 01:52:19;;;;;;;0.93;0.82;;;;;;;;;;5094461;28;20098;-75
2023/01/11 01:54:46;;;;;;;0.63;0.63;;;;;;;;;;5094681;28;20048;-75
2023/01/11 01:57:17;;;;;;;0.70;0.70;;;13.30;77.80;;;;;;5088720;28;20457;-75
2023/01/11 01:59:44;;;;;;;0.88;0.80;;;;;;;;;;5074404;28;20052;-75
2023/01/11 02:02:11;;;;;;;1.10;1.00;;;;;;;;;;5074186;28;20558;-74
2023/01/11 02:04:39;;;;;;;1.02;0.80;;;13.40;76.10;;;;;;5074085;28;20052;-74
2023/01/11 02:07:07;;;;;;;0.77;0.77;;;;;;;;;;5078287;28;20131;-74
2023/01/11 02:09:36;;;;;;;1.00;0.88;;;;;;;;;;5094313;28;20131;-75
2023/01/11 02:12:04;;;;;;;1.10;0.80;;;;;;;;;;5094296;28;20060;-74
2023/01/11 02:14:32;;;;;;;0.70;0.70;;;;;;;;;;5094104;28;20496;-74
2023/01/11 02:16:59;;;;;;;0.80;0.80;;;;;;;;;;5077047;28;20048;-75
2023/01/11 02:19:40;;;;;;;1.00;0.88;;;13.40;78.00;;;;;;5092579;28;20052;-75
2023/01/11 02:22:15;;;;;;;0.70;0.70;;;;;;;;;;5094188;28;20060;-74
2023/01/11 02:24:47;;;;;;;1.13;1.00;;;;;;;;;;5093939;28;20054;-75
2023/01/11 02:27:25;;;;;;;0.80;0.80;;;13.20;78.00;;;;;;5088412;28;20503;-74
2023/01/11 02:29:58;;;;;;;1.13;0.90;;;13.30;78.10;;;;;;5062910;28;20399;-75
2023/01/11 02:32:27;;;;;;;0.98;0.80;;;13.30;76.20;;;;;;5053586;28;20504;-75
2023/01/11 02:34:57;;;;;;;1.05;0.80;;;;;;;;;;5053721;28;20408;-75
2023/01/11 02:37:28;;;;;;;0.70;0.70;;;;;;;;;;5083349;28;20048;-75
2023/01/11 02:39:58;;;;;;;1.10;0.80;;;;;;;;;;5073637;28;20143;-75
2023/01/11 02:45:17;;;;;;;0.60;0.60;;;13.10;77.80;;;;;;5073361;28;20048;-75
2023/01/11 02:47:46;;;;;;;0.60;0.60;;;;;;;;;;5081937;28;20048;-75
2023/01/11 02:50:16;;;;;;;1.00;0.90;;;13.20;78.00;;;;;;5094320;28;20139;-75
2023/01/11 02:52:49;;;;;;;0.70;0.70;;;13.20;78.10;;;;;;5093210;28;20135;-75
2023/01/11 02:55:18;;;;;;;0.80;0.80;;;13.20;77.30;;;;;;5093897;28;20058;-74
2023/01/11 02:57:45;;;;;;;0.90;0.80;;;;;;;;;;5083923;28;20055;-75
2023/01/11 03:00:13;;;;;;;0.70;0.70;;;;;;;;;;5073074;28;20050;-74
2023/01/11 03:02:41;;;;;;;0.70;0.70;;;;;;;;;;5072618;28;20525;-75
2023/01/11 03:05:11;;;;;;;0.95;0.90;;;;;;;;;;5073162;28;20396;-75
2023/01/11 03:07:42;;;;;;;0.80;0.80;;;;;;;;;;5080537;28;20569;-75
2023/01/11 03:10:13;;;;;;;0.70;0.70;;;;;;;;;;5092703;28;20062;-74
2023/01/11 03:12:51;;;;;;;0.80;0.80;;;13.30;78.30;;;;;;5093010;28;20134;-75
2023/01/11 03:15:22;;;;;;;0.85;0.85;;;;;;;;;;5086351;28;20124;-75
2023/01/11 03:17:52;;;;;;;0.65;0.65;;;;;;;;;;5081966;28;20040;-75
2023/01/11 03:20:21;;;;;;;0.70;0.70;;;;;;;;;;5092874;28;20052;-75
2023/01/11 03:22:56;;;;;;;0.70;0.70;;;13.20;77.40;;;;;;5094038;28;20400;-74
2023/01/11 03:25:23;;;;;;;0.60;0.60;;;13.20;76.90;;;;;;5088737;28;20312;-75
2023/01/11 03:27:51;;;;;;;0.70;0.70;;;;;;;;;;5081589;28;20309;-75
2023/01/11 03:30:21;;;;;;;1.60;0.82;;;13.20;78.20;;;;;;5092387;28;20062;-75
2023/01/11 03:32:49;;;;;;;0.63;0.63;;;;;;;;;;5092391;28;20056;-75
2023/01/11 03:35:19;;;;;;;0.75;0.68;;;;;;;;;;5092885;28;20138;-74
2023/01/11 03:37:46;;;;;;;0.95;0.95;;;;;;;;;;5075553;28;20048;-74
2023/01/11 03:40:15;;;;;;;0.70;0.70;;;13.20;77.70;;;;;;5072446;28;20080;-74
2023/01/11 03:43:09;;;;;;;0.60;0.60;;;13.30;78.10;;;;;;5071917;28;20055;-74
2023/01/11 03:45:31;;;;;;;0.70;0.70;;;;;;;;;;5072365;28;20492;-75
2023/01/11 03:47:58;;;;;;;0.80;0.80;;;;;;;;;;5081350;28;20131;-75
2023/01/11 03:50:26;;;;;;;0.70;0.70;;;;;;;;;;5092419;28;20465;-75
2023/01/11 03:52:53;;;;;;;0.77;0.77;;;;;;;;;;5092436;28;20134;-75
2023/01/11 03:55:23;;;;;;;0.60;0.60;;;;;;;;;;5092336;28;20059;-75
2023/01/11 03:57:50;;;;;;;0.70;0.70;;;;;;;;;;5083993;28;20063;-74
2023/01/11 04:00:18;;;;;;;0.60;0.60;;;;;;;;;;5070414;28;20059;-75
2023/01/11 04:02:45;;;;;;;0.73;0.70;;;;;;;;;;5071916;28;20131;-75
2023/01/11 04:05:12;;;;;;;0.93;0.70;;;;;;;;;;5071890;28;20079;-75
2023/01/11 04:07:41;;;;;;;0.80;0.80;;;;;;;;;;5078280;28;20447;-75
2023/01/11 04:10:08;;;;;;;0.60;0.60;;;;;;;;;;5092225;28;20082;-75
2023/01/11 04:12:35;;;;;;;0.70;0.70;;;;;;;;;;5091953;28;20412;-75
2023/01/11 04:15:04;;;;;;;0.73;0.70;;;;;;;;;;5087467;28;20160;-75
2023/01/11 04:17:31;;;;;;;0.70;0.70;;;;;;;;;;5076288;28;20052;-75
2023/01/11 04:19:58;;;;;;;0.70;0.70;;;;;;;;;;5091956;28;20058;-74
2023/01/11 04:22:25;;;;;;;0.77;0.75;;;;;;;;;;5080688;28;20048;-75
2023/01/11 04:24:53;;;;;;;0.70;0.70;;;;;;;;;;5071660;28;20048;-75
2023/01/11 04:27:20;;;;;;;0.60;0.60;;;;;;;;;;5071552;28;20128;-75
2023/01/11 04:29:47;;;;;;;0.80;0.80;;;;;;;;;;5071266;28;20060;-75
2023/01/11 04:32:14;;;;;;;0.80;0.80;;;;;;;;;;5071330;28;20135;-75
2023/01/11 04:34:41;;;;;;;0.60;0.60;;;;;;;;;;5071374;28;20057;-75
2023/01/11 04:37:10;;;;;;;0.60;0.60;;;;;;;;;;5070898;28;20477;-75
2023/01/11 04:39:37;;;;;;;0.60;0.60;;;;;;;;;;5071245;28;20056;-75
2023/01/11 04:42:17;;;;;;;0.60;0.60;;;;;;;;;;5071113;28;20060;-75
2023/01/11 04:44:44;;;;;;;0.65;0.65;;;;;;;;;;5071465;28;20044;-75
2023/01/11 04:47:11;;;;;;;0.70;0.70;;;;;;;;;;5072098;28;20052;-75
2023/01/11 04:49:38;;;;;;;0.70;0.70;;;;;;;;;;5091256;28;20048;-75
2023/01/11 04:52:05;;;;;;;0.82;0.70;;;;;;;;;;5092306;28;20050;-75
2023/01/11 04:54:32;;;;;;;0.80;0.80;;;;;;;;;;5091189;28;20055;-75
2023/01/11 04:57:00;;;;;;;0.70;0.70;;;;;;;;;;5090964;28;20040;-74
2023/01/11 04:59:28;;;;;;;0.75;0.70;;;;;;;;;;5052097;28;20107;-75
2023/01/11 05:01:55;;;;;;;0.75;0.70;;;;;;;;;;5050877;28;20060;-75
2023/01/11 05:04:22;;;;;;;0.55;0.55;;;;;;;;;;5050535;28;20053;-74
2023/01/11 05:06:49;;;;;;;0.57;0.57;;;;;;;;;;5050755;28;20049;-75
2023/01/11 05:09:17;;;;;;;0.68;0.68;;;;;;;;;;5087932;28;20051;-75
2023/01/11 05:11:44;;;;;;;0.60;0.60;;;;;;;;;;5090858;28;20048;-74
2023/01/11 05:14:11;;;;;;;0.55;0.55;;;;;;;;;;5090876;28;20058;-75
2023/01/11 05:16:40;;;;;;;0.60;0.60;;;;;;;;;;5073237;28;20070;-75
2023/01/11 05:19:07;;;;;;;0.68;0.68;;;;;;;;;;5073119;28;20052;-74
2023/01/11 05:21:36;;;;;;;0.60;0.60;;;;;;;;;;5070539;28;20105;-74
2023/01/11 05:24:04;;;;;;;0.60;0.60;;;;;;;;;;5070691;28;20083;-74
2023/01/11 05:26:31;;;;;;;0.60;0.60;;;;;;;;;;5070387;28;20557;-74
2023/01/11 05:28:59;;;;;;;0.60;0.60;;;;;;;;;;5085849;28;20192;-75
2023/01/11 05:31:26;;;;;;;0.68;0.68;;;;;;;;;;5090846;28;20080;-75
2023/01/11 05:33:56;;;;;;;0.60;0.60;;;13.20;78.10;;;;;;5090657;28;20156;-75
2023/01/11 05:36:24;;;;;;;0.65;0.65;;;;;;;;;;5085378;28;20147;-74
2023/01/11 05:38:51;;;;;;;0.70;0.70;;;;;;;;;;5070836;28;20413;-74
2023/01/11 05:41:18;;;;;;;0.68;0.68;;;;;;;;;;5070516;28;20048;-75
2023/01/11 05:46:31;;;;;;;0.60;0.60;;;;;;;;;;5071780;28;20041;-75
2023/01/11 05:48:59;;;;;;;0.60;0.60;;;;;;;;;;5084640;28;20048;-75
2023/01/11 05:51:26;;;;;;;0.63;0.63;;;;;;;;;;5071292;28;20060;-75
2023/01/11 05:53:53;;;;;;;0.50;0.50;;;;;;;;;;5070232;28;20113;-74
2023/01/11 05:56:20;;;;;;;0.60;0.60;;;;;;;;;;5070454;28;20056;-74
2023/01/11 05:58:48;;;;;;;0.68;0.68;;;;;;;;;;5083454;28;20135;-74
2023/01/11 06:01:15;;;;;;;0.65;0.65;;;;;;;;;;5090631;28;20052;-74
2023/01/11 06:03:42;;;;;;;0.70;0.70;;;;;;;;;;5090430;28;20060;-75
2023/01/11 06:06:10;;;;;;;0.50;0.50;;;;;;;;;;5090537;28;20131;-75
2023/01/11 06:08:37;;;;;;;0.70;0.70;;;;;;;;;;5078159;28;20127;-74
2023/01/11 06:11:04;;;;;;;0.70;0.70;;;;;;;;;;5069992;28;20076;-75
2023/01/11 06:13:32;;;;;;;0.50;0.50;;;;;;;;;;5070208;28;20458;-75
2023/01/11 06:16:00;;;;;;;0.70;0.60;;;;;;;;;;5063858;28;20107;-75
2023/01/11 06:18:27;;;;;;;0.60;0.60;;;;;;;;;;5080220;28;20130;-75
2023/01/11 06:20:54;;;;;;;0.50;0.50;;;;;;;;;;5090457;28;20048;-74
2023/01/11 06:23:23;;;;;;;0.60;0.60;;;;;;;;;;5090601;28;20134;-75
2023/01/11 06:25:50;;;;;;;0.70;0.70;;;;;;;;;;5095284;28;20535;-74
2023/01/11 06:28:17;;;;;;;1.15;0.80;;;;;;;;;;5085057;28;20051;-74
2023/01/11 06:30:44;;;;;;;0.50;0.50;;;;;;;;;;5073754;28;20062;-75
2023/01/11 06:33:11;;;;;;;1.30;0.70;;;;;;;;;;5073717;28;20135;-74
2023/01/11 06:35:39;;;;;;;0.68;0.68;;;;;;;;;;5073718;28;20082;-75
2023/01/11 06:38:06;;;;;;;1.02;0.77;;;;;;;;;;5073081;28;20051;-74
2023/01/11 06:40:34;;;;;;;1.27;0.60;;;;;;;;;;5073507;28;20091;-74
2023/01/11 06:43:01;;;;;;;0.82;0.82;;;;;;;;;;5073534;28;20482;-75
2023/01/11 06:45:28;;;;;;;0.68;0.60;;;;;;;;;;5073439;28;20404;-74
2023/01/11 06:47:55;;;;;;;0.80;0.60;;;;;;;;;;5078209;28;20071;-74
2023/01/11 06:50:22;;;;;;;1.33;0.80;;;;;;;;;;5093549;28;20135;-75
2023/01/11 06:52:53;;;;;;;0.50;0.50;;;;;;;;;;5093210;28;20054;-75
2023/01/11 06:55:20;;;;;;;0.98;0.73;;;;;;;;;;5093544;28;20059;-75
2023/01/11 06:57:49;;;;;;;0.60;0.60;;;;;;;;;;5089388;28;20127;-74
2023/01/11 07:00:16;;;;;;;1.70;0.70;;;;;;;;;;5072953;28;20479;-75
2023/01/11 07:02:43;;;;;;;0.93;0.70;;;;;;;;;;5072985;28;20064;-74
2023/01/11 07:05:10;;;;;;;1.17;0.80;;;;;;;;;;5073416;28;20400;-74
2023/01/11 07:07:37;;;;;;;1.50;0.70;;;;;;;;;;5074585;28;20123;-75
2023/01/11 07:10:05;;;;;;;0.95;0.60;;;;;;;;;;5091527;28;20052;-75
2023/01/11 07:12:32;;;;;;;0.50;0.50;;;;;;;;;;5072871;28;20558;-75
2023/01/11 07:15:00;;;;;;;1.15;0.80;;;;;;;;;;5072914;28;20504;-75
2023/01/11 07:17:27;;;;;;;0.80;0.65;;;;;;;;;;5072856;28;20440;-74
2023/01/11 07:19:54;;;;;;;0.70;0.70;;;;;;;;;;5092774;28;20503;-74
2023/01/11 07:22:22;;;;;;;0.70;0.70;;;;;;;;;;5092998;28;20523;-74
2023/01/11 07:24:49;;;;;;;1.58;0.70;;;;;;;;;;5093032;28;20052;-75
2023/01/11 07:27:16;;;;;;;0.88;0.80;;;;;;;;;;5092895;28;20063;-75
2023/01/11 07:29:43;;;;;;;1.40;0.57;;;;;;;;;;5073414;28;20052;-75
2023/01/11 07:32:12;;;;;;;1.63;0.93;;;;;;;;;;5072351;28;20056;-75
2023/01/11 07:34:39;;;;;;;0.70;0.70;;;;;;;;;;5072518;28;20448;-74
2023/01/11 07:37:08;;;;;;;0.80;0.80;;;;;;;;;;5071987;28;20136;-75
2023/01/11 07:39:35;;;;;;;1.27;0.80;;;;;;;;;;5072853;28;20084;-74
2023/01/11 07:44:47;;;;;;;1.98;1.00;;;;;;;;;;5072407;28;20045;-75
2023/01/11 07:47:15;;;;;;;0.73;0.63;;;;;;;;;;5072482;28;20080;-75
2023/01/11 07:49:42;;;;;;;1.33;0.80;;;;;;;;;;5090447;28;20135;-75
2023/01/11 07:52:09;;;;;;;2.05;0.95;;;;;;;;;;5090051;28;20131;-75
2023/01/11 07:54:36;;;;;;;1.55;0.65;;;;;;;;;;5052196;28;20053;-75
2023/01/11 07:57:03;;;;;;;1.50;0.88;;;;;;;;;;5052285;28;20056;-74
2023/01/11 07:59:30;;;;;;;1.00;0.90;;;;;;;;;;5085476;28;20056;-75
2023/01/11 08:01:58;;;;;;;2.20;0.80;;;;;;;;;;5092194;28;20048;-75
2023/01/11 08:04:26;;;;;;;0.70;0.70;;;;;;;;;;5092115;28;20079;-75
2023/01/11 08:06:53;;;;;;;0.95;0.60;;;;;;;;;;5085666;28;20067;-74
2023/01/11 08:09:20;;;;;;;1.67;0.73;;;;;;;;;;5086335;28;20400;-75
2023/01/11 08:14:41;;;;;;;0.97;0.77;;;;;;;;;;5068569;28;20068;-75
2023/01/11 08:17:09;;;;;;;1.38;0.70;;;;;;;;;;5067024;28;20386;-75
2023/01/11 08:19:37;;;;;;;1.45;0.80;;;;;;;;;;5088267;28;20048;-75
2023/01/11 08:22:04;;;;;;;0.88;0.80;;;;;;;;;;5091702;28;20503;-75
2023/01/11 08:24:31;;;;;;;1.10;0.70;;;;;;;;;;5092964;28;20485;-75
2023/01/11 08:26:58;;;;;;;1.48;0.80;;;;;;;;;;5091944;28;20400;-75
2023/01/11 08:29:25;;;;;;;1.40;0.90;;;;;;;;;;5075706;28;20412;-75
2023/01/11 08:31:52;;;;;;;1.20;0.80;;;;;;;;;;5070986;28;20139;-75
2023/01/11 08:34:19;;;;;;;0.93;0.70;;;;;;;;;;5071193;28;20068;-75
2023/01/11 08:36:48;;;;;;;2.45;0.80;;;;;;;;;;5070896;28;20057;-75
2023/01/11 08:39:15;;;;;;;1.75;0.82;;;;;;;;;;5083335;28;20048;-75
2023/01/11 08:41:42;;;;;;;1.25;0.80;;;;;;;;;;5091230;28;20052;-75
2023/01/11 08:44:09;;;;;;;2.20;0.85;;;;;;;;;;5090952;28;20052;-75
2023/01/11 08:46:36;;;;;;;2.13;0.90;;;;;;;;;;5090908;28;20109;-74
2023/01/11 08:49:04;;;;;;;1.67;0.90;;;;;;;;;;5079110;28;20471;-75
2023/01/11 08:51:31;;;;;;;2.03;0.88;;;;;;;;;;5071002;28;20091;-75
2023/01/11 08:53:59;;;;;;;1.95;0.85;;;;;;;;;;5071044;28;20059;-75
2023/01/11 08:56:26;;;;;;;1.58;0.80;;;;;;;;;;5070761;28;20075;-75
2023/01/11 08:58:53;;;;;;;0.70;0.70;;;;;;;;;;5080352;28;20415;-75
2023/01/11 09:01:20;;;;;;;2.03;0.80;;;;;;;;;;5091149;28;20132;-75
2023/01/11 09:03:47;;;;;;;0.88;0.60;;;;;;;;;;5078305;28;20139;-75
2023/01/11 09:06:14;;;;;;;1.83;0.93;;;;;;;;;;5066803;28;20123;-75
2023/01/11 09:08:42;;;;;;;1.58;0.95;;;;;;;;;;5062658;28;20391;-75
2023/01/11 09:11:52;;;;;;;1.02;0.75;;;;;;;;;;5060652;28;20059;-75
2023/01/11 09:13:58;;;;;;;3.38;1.10;;;;;;;;;;5068920;28;20394;-75
2023/01/11 09:16:25;;;;;;;0.70;0.70;;;;;;;;;;5055108;28;20409;-75
2023/01/11 09:18:52;;;;;;;1.77;0.70;;;;;;;;;;5069648;28;20385;-75
2023/01/11 09:21:19;;;;;;;1.27;0.80;;;;;;;;;;5091051;28;20074;-75
2023/01/11 09:23:46;;;;;;;1.17;0.73;;;;;;;;;;5087485;28;20052;-75
2023/01/11 09:26:14;;;;;;;1.02;0.70;;;;;;;;;;5070088;28;20048;-75
2023/01/11 09:28:41;;;;;;;1.58;0.80;;;;;;;;;;5069100;28;20055;-75
2023/01/11 09:31:08;;;;;;;2.13;0.90;;;;;;;;;;5069996;28;20052;-75
2023/01/11 09:33:37;;;;;;;1.58;0.80;;;;;;;;;;5070649;28;20566;-75
2023/01/11 09:36:04;;;;;;;1.90;0.90;;;;;;;;;;5069996;28;20087;-75
2023/01/11 09:38:32;;;;;;;1.15;0.80;;;;;;;;;;5090151;28;20119;-75
2023/01/11 09:41:02;;;;;;;1.10;0.70;;;;;;;;;;5090775;28;20134;-75
2023/01/11 09:43:31;;;;;;;1.33;0.80;;;;;;;;;;5090566;28;20060;-75
2023/01/11 09:46:01;;;;;;;1.40;0.80;;;14.60;76.00;;;;;;5090860;28;20503;-74
2023/01/11 09:48:32;;;;;;;1.85;0.80;;;;;;;;;;5071090;28;20136;-75
2023/01/11 09:51:00;;;;;;;1.52;0.80;;;;;;;;;;5070243;28;20058;-75
2023/01/11 09:53:31;;;;;;;1.75;0.85;;;14.60;73.60;;;;;;5070226;28;20091;-75
2023/01/11 09:56:00;;;;;;;1.48;0.80;;;;;;;;;;5074316;28;20057;-75
2023/01/11 09:58:41;;;;;;;2.35;1.00;;;;;;;;;;5091046;28;20052;-74
2023/01/11 10:01:11;;;;;;;1.17;0.80;;;;;;;;;;5053914;28;20053;-75
2023/01/11 10:03:57;;;;;;;1.80;0.90;;;;;;;;;;5054340;28;20080;-75
2023/01/11 10:06:25;;;;;;;2.53;0.80;;;;;;;;;;5056932;28;20144;-75
2023/01/11 10:09:08;;;;;;;1.50;0.80;;;14.70;75.90;;;;;;5094020;28;20131;-75
2023/01/11 10:11:41;;;;;;;1.52;0.85;;;;;;;;;;5094394;28;20079;-75
2023/01/11 10:14:13;;;;;;;1.25;0.85;;;14.70;75.80;;;;;;5076083;28;20562;-75
2023/01/11 10:16:43;;;;;;;1.38;0.90;;;;;;;;;;5074719;28;20132;-75
2023/01/11 10:19:15;;;;;;;3.30;1.20;;;14.70;75.30;;;;;;5073700;28;20081;-75
2023/01/11 10:21:44;;;;;;;1.23;0.73;;;;;;;;;;5071739;28;20060;-75
2023/01/11 10:24:13;;;;;;;1.70;0.90;;;;;;;;;;5070887;28;20060;-75
2023/01/11 10:26:40;;;;;;;1.30;0.73;;;;;;;;;;5067062;28;20057;-75
2023/01/11 10:29:38;;;;;;;1.55;0.98;;;;;;;;;;5053889;28;20417;-75
2023/01/11 10:32:32;;;;;;;2.70;0.80;;;14.80;75.80;;;;;;5073282;28;20409;-75
2023/01/11 10:35:13;;;;;;;1.80;0.90;;;;;;;;;;5073825;28;20064;-77
2023/01/11 10:37:53;;;;;;;1.25;0.80;;;;;;;;;;5065477;28;20053;-73
2023/01/11 10:40:33;;;;;;;1.08;0.70;;;14.80;75.70;;;;;;5072667;28;20138;-74
2023/01/11 10:43:03;;;;;;;2.05;0.80;;;14.80;75.60;;;;;;5073039;28;20048;-74
2023/01/11 10:45:33;;;;;;;1.48;0.85;;;;;;;;;;5063052;28;20080;-73
2023/01/11 10:48:03;;;;;;;1.55;0.90;;;14.80;74.00;;;;;;5065006;28;20060;-74
2023/01/11 10:50:31;;;;;;;1.17;0.88;;;;;;;;;;5052925;28;20053;-73
2023/01/11 10:53:00;;;;;;;1.20;0.80;;;;;;;;;;5053327;28;20063;-74
2023/01/11 10:55:28;;;;;;;1.52;0.90;;;;;;;;;;5069762;28;20127;-74
2023/01/11 10:57:58;;;;;;;2.22;1.05;;;;;;;;;;5090882;28;20500;-74
2023/01/11 11:00:30;;;;;;;1.23;0.70;;;14.90;75.50;;;;;;5093414;28;20111;-74
2023/01/11 11:03:26;;;;;;;1.35;0.73;;;14.90;75.50;;;;;;5089697;28;20119;-73
2023/01/11 11:05:53;;;;;;;1.50;0.90;;;;;;;;;;5063032;28;20059;-73
2023/01/11 11:08:25;;;;;;;0.88;0.77;;;;;;;;;;5074214;28;20144;-73
2023/01/11 11:10:55;;;;;;;1.75;0.95;;;14.80;74.20;;;;;;5072653;28;20461;-74
2023/01/11 11:13:23;;;;;;;1.85;0.93;;;14.90;75.00;;;;;;5072616;28;20488;-73
2023/01/11 11:15:51;;;;;;;0.82;0.70;;;;;;;;;;5082107;28;20063;-73
2023/01/11 11:18:18;;;;;;;2.50;1.00;;;;;;;;;;5072927;28;20194;-75
2023/01/11 11:20:47;;;;;;;0.73;0.63;;;;;;;;;;5072683;28;20131;-75
2023/01/11 11:23:15;;;;;;;1.80;0.70;;;14.80;74.90;;;;;;5072150;28;20080;-75
2023/01/11 11:25:42;;;;;;;2.05;1.02;;;;;;;;;;5072988;28;20048;-76
2023/01/11 11:28:25;;;;;;;1.95;0.98;;;14.80;75.50;;;;;;5072665;28;20048;-76
2023/01/11 11:30:52;;;;;;;1.00;0.80;;;;;;;;;;5072425;28;20059;-76
2023/01/11 11:33:20;;;;;;;2.58;1.00;;;14.80;73.70;;;;;;5072511;28;20053;-76
2023/01/11 11:35:55;;;;;;;1.00;0.90;;;;;;;;;;5071635;28;20158;-76
2023/01/11 11:38:23;;;;;;;2.28;0.82;;;;;;;;;;5073208;28;20126;-76
2023/01/11 11:40:56;;;;;;;2.55;0.95;;;;;;;;;;5072213;28;20045;-76
2023/01/11 11:43:24;;;;;;;1.63;0.93;;;;;;;;;;5072375;28;20054;-76
2023/01/11 11:45:51;;;;;;;1.75;0.90;;;;;;;;;;5069978;28;20509;-76
2023/01/11 11:48:19;;;;;;;2.90;1.10;;;;;;;;;;5068726;28;20123;-76
2023/01/11 11:50:46;;;;;;;0.82;0.80;;;;;;;;;;5071152;28;20044;-76
2023/01/11 11:53:26;;;;;;;2.25;1.00;;;14.70;75.90;;;;;;5071966;28;20064;-76
2023/01/11 11:55:53;;;;;;;4.20;1.58;;;;;;;;;;5071237;28;20132;-76
2023/01/11 11:58:21;;;;;;;6.38;1.40;;;14.80;74.80;;;;;;5071654;28;20055;-77
2023/01/11 12:00:48;;;;;;;7.43;1.77;;;14.70;73.60;;;;;;5069788;28;20043;-77
2023/01/11 12:03:16;;;;;;;9.55;1.70;;;;;;;;;;5069700;28;20107;-78
2023/01/11 12:05:50;;;;;;;2.63;1.20;;;;;;;;;;5067299;28;20052;-77
2023/01/11 12:08:18;;;;;;;2.92;1.00;;;;;;;;;;5066971;28;20053;-76
2023/01/11 12:10:49;;;;;;;5.32;1.20;;;;;;;;;;5066600;28;20055;-76
2023/01/11 12:13:30;;;;;;;2.85;1.08;;;;;;;;;;5064770;28;20055;-75
2023/01/11 12:15:57;;;;;;;2.70;1.52;;;;;;;;;;5066635;28;20049;-77
2023/01/11 12:18:24;;;;;;;3.17;1.30;;;;;;;;;;5071304;28;20059;-77
2023/01/11 12:20:51;;;;;;;4.47;1.35;;;;;;;;;;5069527;28;20041;-76
2023/01/11 12:23:22;;;;;;;4.28;1.60;;;;;;;;;;5069788;28;20048;-77
2023/01/11 12:26:12;;;;;;;10.70;1.95;;;14.50;76.20;;;;;;5072385;28;20128;-75
2023/01/11 12:29:06;;;;;;;8.10;1.77;;;14.50;75.60;;;;;;5071104;28;20123;-76
2023/01/11 12:31:38;;;;;;;5.22;1.52;;;14.50;76.40;;;;;;5069226;28;20044;-76
2023/01/11 12:34:10;;;;;;;9.68;1.50;;;14.40;76.40;;;;;;5070988;28;20464;-76
2023/01/11 12:36:39;;;;;;;4.85;1.48;;;14.50;76.40;;;;;;5070209;28;20493;-75
2023/01/11 12:39:11;;;;;;;5.15;1.90;;;14.50;76.50;;;;;;5070604;28;20051;-76
2023/01/11 12:41:46;;;;;;;5.88;1.60;;;;;;;;;;5070907;28;20048;-76
2023/01/11 12:44:15;;;;;;;5.82;1.50;;;;;;;;;;5068841;28;20052;-75
2023/01/11 12:46:45;;;;;;;5.55;1.50;;;;;;;;;;5070516;28;20135;-75
2023/01/11 12:49:15;;;;;;;4.75;1.70;;;;;;;;;;5068081;28;20513;-76
2023/01/11 12:51:46;;;;;;;6.57;1.90;;;;;;;;;;5070601;28;20067;-76
2023/01/11 12:54:19;;;;;;;4.47;1.45;;;;;;;;;;5070591;28;20386;-76
2023/01/11 12:57:03;;;;;;;4.97;1.50;;;;;;;;;;5070951;28;20503;-76
2023/01/11 12:59:35;;;;;;;5.97;1.75;;;;;;;;;;5068231;28;20056;-76
2023/01/11 13:02:04;;;;;;;5.20;1.80;;;;;;;;;;5070295;28;20149;-76
2023/01/11 13:04:53;;;;;;;4.30;1.50;;;14.20;75.00;;;;;;5053241;28;20139;-76
2023/01/11 13:07:24;;;;;;;3.55;1.60;;;;;;;;;;5067526;28;20056;-76
2023/01/11 13:09:59;;;;;;;5.78;1.83;;;14.20;76.70;;;;;;5070616;28;20148;-76
2023/01/11 13:12:26;;;;;;;;;;;;;;;;;;5071055;28;20520;-76
2023/01/11 13:14:57;;;;;;;3.97;1.38;;;;;;;;;;5072841;28;19926;-78
2023/01/11 13:17:29;;;;;;;7.43;1.77;;;;;;;;;;5058434;28;20064;-78
2023/01/11 13:20:03;;;;;;;7.60;1.88;;;;;;;;;;5060305;28;20036;-78
2023/01/11 13:22:30;;;;;;;4.47;1.63;;;;;;;;;;5075546;28;20048;-78
2023/01/11 13:24:58;;;;;;;7.10;1.50;;;;;;;;;;4181526;28;10000106;-78
2023/01/11 13:28:07;;;;;;;6.13;1.70;;;;;;;;;;5034516;28;20080;-78
2023/01/11 13:30:49;;;;;;;4.72;1.58;;;;;;;;;;5051643;23;20049;-79
2023/01/11 13:33:19;;;;;;;4.10;1.75;;;;;;;;;;5039451;28;20053;-79
2023/01/11 13:35:48;;;;;;;3.67;1.60;;;;;;;;;;5031098;28;20138;-78
2023/01/11 13:43:44;;;;;;;4.57;1.52;;;;;;;;;;5001120;28;20085;-78
2023/01/11 13:46:13;;;;;;;3.65;1.40;;;;;;;;;;5006474;28;20054;-78
2023/01/11 13:51:31;;;;;;;4.05;1.60;;;;;;;;;;4959189;28;20118;-79
2023/01/11 13:54:00;;;;;;;4.03;1.52;;;14.10;74.40;;;;;;4980481;28;20555;-79
2023/01/11 13:56:30;;;;;;;6.00;1.40;;;14.20;75.90;;;;;;4980698;28;20059;-79
2023/01/11 13:58:59;;;;;;;3.28;1.60;;;;;;;;;;4978675;28;20066;-78
2023/01/11 14:01:28;;;;;;;6.68;2.10;;;;;;;;;;4979409;28;20078;-78
2023/01/11 14:03:56;;;;;;;3.28;1.40;;;14.20;74.20;;;;;;4979044;28;20110;-78
2023/01/11 14:06:41;;;;;;;4.63;1.48;;;;;;;;;;4985983;28;20144;-78
2023/01/11 14:09:12;;;;;;;2.60;1.40;;;;;;;;;;4989258;28;20054;-79
2023/01/11 14:11:43;;;;;;;4.82;1.65;;;14.10;76.50;;;;;;4979381;28;20142;-78
2023/01/11 14:14:25;;;;;;;4.13;1.48;;;;;;;;;;4977748;28;20058;-78
2023/01/11 14:20:28;;;;;;;4.28;1.85;;;;;;;;;;4063575;28;10000416;-79
2023/01/11 14:26:33;;;;;;;3.83;1.40;;;;;;;;;;5010579;28;20053;-77
2023/01/11 14:42:15;;;;;;;3.65;1.60;;;14.30;74.50;;;;;;5028648;28;20541;-77
2023/01/11 14:44:52;;;;;;;6.05;1.88;;;;;;;;;;5031602;28;20054;-77
2023/01/11 14:47:40;;;;;;;5.53;1.60;;;14.20;74.30;;;;;;5033976;28;20060;-77
2023/01/11 14:50:39;;;;;;;3.83;1.60;;;;;;;;;;5050778;23;20428;-79
2023/01/11 14:53:20;;;;;;;2.92;1.55;;;;;;;;;;5055647;28;20048;-76
2023/01/11 14:55:48;;;;;;;3.03;1.50;;;;;;;;;;5056960;28;20056;-75
2023/01/11 14:58:20;;;;;;;4.50;1.45;;;;;;;;;;5061252;28;20068;-75
2023/01/11 15:01:06;;;;;;;5.85;1.98;;;;;;;;;;5046528;23;20049;-77
2023/01/11 15:03:51;;;;;;;4.10;1.40;;;;;;;;;;5051247;28;20135;-76
2023/01/11 15:06:20;;;;;;;;;;;;;;;;;;5043443;28;20618;-77
2023/01/11 15:08:47;;;;;;;6.97;2.08;;;;;;;;;;5022636;28;20313;-77
2023/01/11 15:11:22;;;;;;;2.92;1.33;;;;;;;;;;5020134;28;20046;-77
2023/01/11 15:13:52;;;;;;;4.07;1.52;;;;;;;;;;5028774;28;20136;-77
2023/01/11 15:19:02;;;;;;;3.92;1.30;;;;;;;;;;4984299;28;20053;-77
2023/01/11 15:21:29;;;;;;;4.40;1.65;;;;;;;;;;5025913;28;20049;-77
2023/01/11 15:23:57;;;;;;;4.07;1.50;;;;;;;;;;5020701;28;20532;-77
2023/01/11 15:26:24;;;;;;;5.80;1.52;;;;;;;;;;5020867;28;20053;-77
2023/01/11 15:28:53;;;;;;;3.00;1.30;;;;;;;;;;5031526;28;20049;-77
2023/01/11 15:31:42;;;;;;;2.63;1.45;;;;;;;;;;5029377;28;20056;-77
2023/01/11 15:34:22;;;;;;;4.90;1.30;;;;;;;;;;5013162;28;20057;-77
2023/01/11 15:36:53;;;;;;;4.22;1.40;;;;;;;;;;5031395;28;20173;-77